createdAt,value
2022-10-14T00:03:54.062Z,100861.44
2022-10-14T00:08:57.682Z,100859.47
2022-10-14T00:14:04.039Z,100849.09
2022-10-14T00:19:07.867Z,100842.25
2022-10-14T00:24:12.713Z,100860.41
2022-10-14T00:29:18.883Z,100855.97
2022-10-14T00:34:21.468Z,100836.56
2022-10-14T00:39:23.742Z,100847.16
2022-10-14T00:44:26.122Z,100849.72
2022-10-14T00:49:32.747Z,100840.88
2022-10-14T00:54:56.458Z,100836.09
2022-10-14T01:00:11.108Z,100846.16
2022-10-14T01:05:15.522Z,100838.91
2022-10-14T01:10:41.654Z,100833.16
2022-10-14T01:16:16.348Z,100827.84
2022-10-14T01:21:31.850Z,100821.84
2022-10-14T01:26:43.081Z,100815.59
2022-10-14T01:32:07.953Z,100798.97
2022-10-14T01:37:14.846Z,100804.63
2022-10-14T01:42:23.452Z,100796.13
2022-10-14T01:47:26.940Z,100792.75
2022-10-14T01:52:35.031Z,100793.56
2022-10-14T01:57:42.468Z,100791.81
2022-10-14T02:02:44.940Z,100787.34
2022-10-14T02:07:50.922Z,100788.50
2022-10-14T02:13:02.113Z,100786.28
2022-10-14T02:18:15.710Z,100779.81
2022-10-14T02:23:21.788Z,100786.91
2022-10-14T02:28:26.776Z,100782.78
2022-10-14T02:33:37.666Z,100762.28
2022-10-14T02:38:43.750Z,100767.13
2022-10-14T02:43:46.494Z,100767.72
2022-10-14T02:48:49.935Z,100767.34
2022-10-14T02:53:52.396Z,100755.44
2022-10-14T02:58:54.769Z,100762.75
2022-10-14T03:03:58.658Z,100749.34
2022-10-14T03:09:01.090Z,100753.34
2022-10-14T03:14:06.925Z,100744.03
2022-10-14T03:19:09.451Z,100746.38
2022-10-14T03:24:19.634Z,100749.78
2022-10-14T03:29:26.805Z,100746.78
2022-10-14T03:34:36.020Z,100739.75
2022-10-14T03:39:42.125Z,100740.75
2022-10-14T03:44:45.139Z,100736.97
2022-10-14T03:49:58.499Z,100727.75
2022-10-14T03:55:10.889Z,100737.34
2022-10-14T04:00:16.224Z,100723.16
2022-10-14T04:05:18.562Z,100712.91
2022-10-14T04:10:24.350Z,100717.97
2022-10-14T04:15:29.560Z,100713.97
2022-10-14T04:20:55.135Z,100707.75
2022-10-14T04:26:04.453Z,100710.69
2022-10-14T04:31:07.200Z,100713.41
2022-10-14T04:36:21.621Z,100700.53
2022-10-14T04:41:24.832Z,100709.00
2022-10-14T04:46:28.455Z,100708.41
2022-10-14T04:51:31.560Z,100709.47
2022-10-14T04:56:45.524Z,100699.16
2022-10-14T05:01:48.280Z,100699.00
2022-10-14T05:06:51.330Z,100681.06
2022-10-14T05:11:55.062Z,100689.34
2022-10-14T05:17:05.527Z,100702.84
2022-10-14T05:22:09.359Z,100689.81
2022-10-14T05:27:17.133Z,100701.38
2022-10-14T05:32:20.597Z,100695.22
2022-10-14T05:37:26.340Z,100686.03
2022-10-14T05:42:30.696Z,100703.22
2022-10-14T05:47:34.481Z,100696.72
2022-10-14T05:52:46.311Z,100711.97
2022-10-14T05:57:58.025Z,100711.81
2022-10-14T06:03:06.175Z,100715.63
2022-10-14T06:08:09.153Z,100715.66
2022-10-14T06:13:14.395Z,100715.84
2022-10-14T06:18:20.444Z,100721.91
2022-10-14T06:23:23.358Z,100711.91
2022-10-14T06:28:26.605Z,100703.16
2022-10-14T06:33:32.847Z,100718.63
2022-10-14T06:38:35.239Z,100708.16
2022-10-14T06:43:38.169Z,100707.59
2022-10-14T06:48:41.481Z,100709.09
2022-10-14T06:53:43.877Z,100713.56
2022-10-14T06:58:46.179Z,100711.75
2022-10-14T07:03:51.681Z,100718.91
2022-10-14T07:08:56.612Z,100706.72
2022-10-14T07:13:59.387Z,100706.47
2022-10-14T07:19:01.717Z,100704.56
2022-10-14T07:24:04.070Z,100712.91
2022-10-14T07:29:06.755Z,100705.81
2022-10-14T07:34:09.459Z,100707.69
2022-10-14T07:39:11.954Z,100711.88
2022-10-14T07:44:15.918Z,100709.06
2022-10-14T07:49:20.598Z,100705.63
2022-10-14T07:54:25.493Z,100700.00
2022-10-14T07:59:27.865Z,100695.06
2022-10-14T08:04:30.367Z,100690.75
2022-10-14T08:09:36.677Z,100706.91
2022-10-14T08:14:39.232Z,100709.13
2022-10-14T08:19:41.551Z,100702.53
2022-10-14T08:24:44.484Z,100708.50
2022-10-14T08:29:46.779Z,100704.44
2022-10-14T08:34:49.182Z,100703.09
2022-10-14T08:39:51.442Z,100709.41
2022-10-14T08:45:00.171Z,100696.06
2022-10-14T08:50:11.040Z,100696.63
2022-10-14T08:55:36.939Z,100687.91
2022-10-14T09:00:42.298Z,100693.38
2022-10-14T09:05:44.984Z,100686.25
2022-10-14T09:10:47.444Z,100682.38
2022-10-14T09:15:55.643Z,100678.00
2022-10-14T09:20:58.524Z,100673.38
2022-10-14T09:26:12.711Z,100676.47
2022-10-14T09:31:15.265Z,100676.44
2022-10-14T09:36:22.129Z,100675.25
2022-10-14T09:41:29.004Z,100671.34
2022-10-14T09:46:31.376Z,100675.78
2022-10-14T09:51:34.668Z,100677.56
2022-10-14T09:56:42.087Z,100681.41
2022-10-14T10:02:10.488Z,100677.22
2022-10-14T10:07:34.527Z,100675.00
2022-10-14T10:12:37.064Z,100676.47
2022-10-14T10:17:40.876Z,100679.81
2022-10-14T10:22:43.533Z,100662.84
2022-10-14T10:27:48.006Z,100670.19
2022-10-14T10:33:02.182Z,100662.44
2022-10-14T10:38:23.383Z,100661.84
2022-10-14T10:43:42.678Z,100657.25
2022-10-14T10:49:07.942Z,100643.25
2022-10-14T10:54:16.346Z,100639.97
2022-10-14T10:59:52.192Z,100637.84
2022-10-14T11:05:00.953Z,100630.56
2022-10-14T11:10:43.005Z,100635.81
2022-10-14T11:16:27.671Z,100630.09
2022-10-14T11:21:55.743Z,100625.13
2022-10-14T11:26:58.724Z,100620.97
2022-10-14T11:32:17.528Z,100608.31
2022-10-14T11:37:30.338Z,100600.22
2022-10-14T11:42:54.473Z,100607.94
2022-10-14T11:48:11.154Z,100599.13
2022-10-14T11:53:19.399Z,100601.19
2022-10-14T11:58:26.154Z,100591.84
2022-10-14T12:04:07.018Z,100595.16
2022-10-14T12:09:31.669Z,100585.84
2022-10-14T12:14:52.470Z,100588.53
2022-10-14T12:19:54.931Z,100586.38
2022-10-14T12:25:04.560Z,100592.78
2022-10-14T12:30:37.487Z,100580.50
2022-10-14T12:35:48.835Z,100586.09
2022-10-14T12:40:52.912Z,100587.06
2022-10-14T12:46:04.434Z,100572.53
2022-10-14T12:51:16.666Z,100568.47
2022-10-14T12:56:54.733Z,100581.34
2022-10-14T13:01:59.985Z,100572.91
2022-10-14T13:07:38.918Z,100568.53
2022-10-14T13:12:42.020Z,100571.75
2022-10-14T13:17:46.660Z,100576.31
2022-10-14T13:22:49.724Z,100569.09
2022-10-14T13:28:24.854Z,100574.94
2022-10-14T13:33:41.007Z,100571.66
2022-10-14T13:38:47.766Z,100565.19
2022-10-14T13:43:53.506Z,100563.66
2022-10-14T13:48:58.381Z,100561.75
2022-10-14T13:54:19.154Z,100561.81
2022-10-14T13:59:43.355Z,100561.88
2022-10-14T14:04:55.890Z,100557.66
2022-10-14T14:10:02.748Z,100556.06
2022-10-14T14:15:05.744Z,100559.44
2022-10-14T14:20:12.038Z,100555.56
2022-10-14T14:25:38.358Z,100542.50
2022-10-14T14:30:54.861Z,100540.41
2022-10-14T14:35:59.741Z,100539.91
2022-10-14T14:41:15.977Z,100535.03
2022-10-14T14:46:21.349Z,100528.94
2022-10-14T14:51:24.149Z,100536.75
2022-10-14T14:56:30.127Z,100533.22
2022-10-14T15:01:32.395Z,100526.56
2022-10-14T15:06:35.703Z,100531.13
2022-10-14T15:11:52.486Z,100523.75
2022-10-14T15:16:54.834Z,100514.81
2022-10-14T15:22:24.087Z,100525.50
2022-10-14T15:27:38.325Z,100530.53
2022-10-14T15:32:41.210Z,100528.47
2022-10-14T15:37:43.673Z,100525.91
2022-10-14T15:42:47.627Z,100524.28
2022-10-14T15:53:04.529Z,100530.22
2022-10-14T15:58:06.993Z,100527.94
2022-10-14T16:03:10.873Z,100528.63
2022-10-14T16:08:14.786Z,100525.88
2022-10-14T16:13:17.243Z,100522.19
2022-10-14T16:18:21.615Z,100525.84
2022-10-14T16:23:31.017Z,100521.63
2022-10-14T16:28:36.494Z,100517.56
2022-10-14T16:33:40.524Z,100535.41
2022-10-14T16:38:45.771Z,100540.91
2022-10-14T16:43:48.350Z,100531.06
2022-10-14T16:48:54.290Z,100534.44
2022-10-14T16:53:56.648Z,100527.84
2022-10-14T16:58:59.864Z,100524.56
2022-10-14T17:04:02.265Z,100523.66
2022-10-14T17:09:05.206Z,100532.94
2022-10-14T17:14:07.776Z,100529.19
2022-10-14T17:19:11.295Z,100528.13
2022-10-14T17:24:17.126Z,100527.28
2022-10-14T17:29:20.616Z,100517.94
2022-10-14T17:34:25.374Z,100530.31
2022-10-14T17:39:29.460Z,100521.66
2022-10-14T17:44:32.842Z,100516.78
2022-10-14T17:49:36.431Z,100519.91
2022-10-14T17:54:38.780Z,100521.19
2022-10-14T17:59:41.158Z,100523.56
2022-10-14T18:04:43.512Z,100509.97
2022-10-14T18:09:46.407Z,100504.66
2022-10-14T18:14:48.758Z,100511.03
2022-10-14T18:19:52.377Z,100505.22
2022-10-14T18:24:55.048Z,100503.97
2022-10-14T18:29:57.985Z,100514.06
2022-10-14T18:35:00.244Z,100503.28
2022-10-14T18:40:02.571Z,100502.28
2022-10-14T18:45:05.158Z,100498.50
2022-10-14T18:50:07.746Z,100493.75
2022-10-14T18:55:10.236Z,100496.78
2022-10-14T19:00:14.315Z,100495.72
2022-10-14T19:05:17.210Z,100496.13
2022-10-14T19:10:19.574Z,100503.47
2022-10-14T19:15:26.595Z,100492.91
2022-10-14T19:20:29.016Z,100496.78
2022-10-14T19:25:32.448Z,100500.66
2022-10-14T19:30:34.762Z,100496.03
2022-10-14T19:35:37.074Z,100488.13
2022-10-14T19:40:39.557Z,100487.59
2022-10-14T19:45:43.062Z,100476.63
2022-10-14T19:50:47.063Z,100466.91
2022-10-14T19:55:49.391Z,100462.63
2022-10-14T20:00:52.174Z,100464.00
2022-10-14T20:06:01.781Z,100456.78
2022-10-14T20:11:06.117Z,100465.81
2022-10-14T20:16:12.074Z,100457.94
2022-10-14T20:21:16.155Z,100466.44
2022-10-14T20:26:21.247Z,100468.66
2022-10-14T20:31:25.513Z,100459.69
2022-10-14T20:36:28.062Z,100449.63
2022-10-14T20:41:30.383Z,100458.13
2022-10-14T20:46:32.757Z,100459.19
2022-10-14T20:51:35.234Z,100458.91
2022-10-14T20:56:38.054Z,100459.19
2022-10-14T21:01:40.624Z,100467.09
2022-10-14T21:06:43.270Z,100462.47
2022-10-14T21:11:46.618Z,100455.09
2022-10-14T21:16:48.939Z,100446.66
2022-10-14T21:21:51.276Z,100448.03
2022-10-14T21:26:53.903Z,100443.34
2022-10-14T21:31:56.265Z,100442.56
2022-10-14T21:36:58.624Z,100445.88
2022-10-14T21:42:00.943Z,100436.31
2022-10-14T21:47:03.486Z,100434.66
2022-10-14T21:52:05.892Z,100433.84
2022-10-14T21:57:08.182Z,100435.47
2022-10-14T22:02:10.434Z,100431.28
2022-10-14T22:07:12.988Z,100430.81
2022-10-14T22:12:16.581Z,100439.00
2022-10-14T22:17:18.972Z,100429.75
2022-10-14T22:22:21.409Z,100423.16
2022-10-14T22:27:24.135Z,100423.25
2022-10-14T22:32:28.072Z,100424.31
2022-10-14T22:37:32.140Z,100430.84
2022-10-14T22:42:35.959Z,100426.19
2022-10-14T22:47:40.299Z,100404.44
2022-10-14T22:52:42.775Z,100420.19
2022-10-14T22:57:45.063Z,100407.94
2022-10-14T23:02:47.458Z,100404.44
2022-10-14T23:07:49.935Z,100398.97
2022-10-14T23:12:52.309Z,100400.38
2022-10-14T23:17:54.628Z,100392.72
2022-10-14T23:22:56.952Z,100390.00
2022-10-14T23:27:59.282Z,100384.25
2022-10-14T23:33:01.729Z,100383.16
2022-10-14T23:38:04.471Z,100382.59
2022-10-14T23:43:06.889Z,100379.31
2022-10-14T23:48:09.347Z,100382.59
2022-10-14T23:53:12.607Z,100363.47
2022-10-14T23:58:15.154Z,100368.00
